Time;durP1;ratioP1;P1;durP2;ratioP2;P2;SDS_P1;SDS_P2;PMS_P1;PMS_P2;Temp;Humidity;BMP_temperature;BMP_pressure;BME280_temperature;BME280_humidity;BME280_pressure;Samples;Min_cycle;Max_cycle;Signal;HPM_P1;HPM_P2
2022/10/13 00:02:21;;;;;;;2.60;2.27;;;;;;;10.52;73.65;101949.81;6194283;28;20229;-73
2022/10/13 00:05:43;;;;;;;5.43;2.83;;;;;;;10.44;74.26;101944.13;6185508;28;20257;-73
2022/10/13 00:09:05;;;;;;;4.20;2.40;;;;;;;10.59;73.88;101944.84;6196273;28;20560;-73
2022/10/13 00:12:26;;;;;;;4.37;2.50;;;;;;;10.68;73.48;101936.94;6188917;28;20241;-73
2022/10/13 00:15:48;;;;;;;3.90;2.37;;;;;;;10.71;72.56;101936.75;6192775;28;22418;-72
2022/10/13 00:19:09;;;;;;;4.50;2.60;;;;;;;10.47;73.51;101940.34;6190522;28;20592;-73
2022/10/13 00:22:30;;;;;;;6.07;2.83;;;;;;;10.55;73.67;101944.22;6188789;28;20261;-72
2022/10/13 00:25:52;;;;;;;3.43;2.10;;;;;;;10.66;73.86;101940.75;6180665;28;21900;-73
2022/10/13 00:29:13;;;;;;;5.23;2.60;;;;;;;10.53;73.26;101938.06;6158532;28;20802;-73
2022/10/13 00:32:34;;;;;;;5.37;3.20;;;;;;;10.58;73.11;101927.81;6158662;28;20566;-73
2022/10/13 00:35:54;;;;;;;3.57;1.90;;;;;;;10.51;72.86;101931.94;6171727;28;20840;-73
2022/10/13 00:39:16;;;;;;;2.50;2.30;;;;;;;9.99;75.27;101937.38;6154152;28;20237;-73
2022/10/13 00:42:40;;;;;;;4.07;2.93;;;;;;;9.79;76.07;101929.81;6159852;28;20257;-74
2022/10/13 00:46:01;;;;;;;3.33;2.30;;;;;;;9.92;75.40;101921.75;6184990;28;20486;-74
2022/10/13 00:49:22;;;;;;;5.13;2.53;;;;;;;9.84;75.62;101930.38;6172447;28;20509;-73
2022/10/13 00:52:44;;;;;;;6.03;2.77;;;;;;;9.90;75.52;101923.69;6187221;28;20958;-73
2022/10/13 00:56:09;;;;;;;4.07;2.20;;;;;;;9.74;75.94;101920.34;6189333;28;20251;-74
2022/10/13 00:59:31;;;;;;;2.13;2.03;;;;;;;9.93;75.01;101916.25;6185264;28;20248;-74
2022/10/13 01:02:52;;;;;;;5.27;2.63;;;;;;;9.93;75.64;101918.13;6191839;28;21321;-74
2022/10/13 01:06:13;;;;;;;5.97;2.93;;;;;;;10.14;74.92;101913.94;6188159;28;20226;-73
2022/10/13 01:09:36;;;;;;;6.87;2.60;;;;;;;10.21;74.38;101915.22;6195283;28;20237;-73
2022/10/13 01:13:04;;;;;;;2.70;2.17;;;;;;;9.80;76.19;101911.84;6189721;28;20248;-74
2022/10/13 01:16:34;;;;;;;3.67;2.17;;;;;;;9.87;76.11;101913.13;6196387;28;21008;-73
2022/10/13 01:20:17;;;;;;;10.03;2.10;;;;;;;9.95;75.77;101910.78;6194273;28;20406;-73
2022/10/13 01:24:14;;;;;;;3.03;2.37;;;;;;;9.78;75.92;101905.69;6190551;28;20233;-74
2022/10/13 01:28:02;;;;;;;2.83;2.50;;;;;;;9.57;76.76;101905.34;6181057;28;20228;-73
2022/10/13 01:31:29;;;;;;;2.63;2.30;;;;;;;9.58;76.58;101907.06;6173084;28;20233;-73
2022/10/13 01:34:55;;;;;;;3.57;2.20;;;;;;;9.37;77.41;101903.13;6201802;28;20221;-73
2022/10/13 01:38:26;;;;;;;2.70;1.90;;;;;;;9.24;78.53;101896.88;6200418;28;20249;-72
2022/10/13 01:41:51;;;;;;;4.70;2.23;;;;;;;9.18;78.59;101902.66;6179328;28;20257;-73
2022/10/13 01:45:17;;;;;;;5.80;2.23;;;;;;;9.25;78.38;101890.50;6176314;28;20241;-71
2022/10/13 01:48:42;;;;;;;4.47;2.60;;;;;;;9.19;78.57;101896.28;6198523;28;20237;-73
2022/10/13 01:52:08;;;;;;;6.53;2.97;;;;;;;9.41;78.07;101888.50;6183410;28;20242;-74
2022/10/13 01:55:30;;;;;;;5.37;2.33;;;;;;;9.26;78.71;101882.31;6170520;28;20233;-74
2022/10/13 01:58:53;;;;;;;6.40;3.40;;;;;;;9.00;79.63;101876.97;6162251;28;20241;-74
2022/10/13 02:02:22;;;;;;;3.40;3.10;;;;;;;9.08;79.29;101877.31;6194544;28;20233;-74
2022/10/13 02:05:48;;;;;;;6.53;2.20;;;;;;;8.86;80.51;101877.88;6195476;28;20236;-75
2022/10/13 02:09:15;;;;;;;3.07;2.00;;;;;;;9.04;79.76;101875.78;6190795;28;20237;-74
2022/10/13 02:12:42;;;;;;;6.53;3.13;;;;;;;8.93;80.32;101876.50;6158413;28;20237;-74
2022/10/13 02:16:03;;;;;;;6.80;2.70;;;;;;;8.99;80.09;101877.94;6196902;28;20241;-74
2022/10/13 02:19:24;;;;;;;2.90;2.43;;;;;;;9.03;80.03;101864.19;6188954;28;20316;-73
2022/10/13 02:22:50;;;;;;;3.17;2.37;;;;;;;9.33;79.40;101872.00;6186085;28;20226;-74
2022/10/13 02:26:12;;;;;;;3.13;2.83;;;;;;;9.51;78.74;101865.41;6165945;28;20229;-74
2022/10/13 02:29:33;;;;;;;7.97;3.00;;;;;;;9.38;78.93;101862.69;6150783;28;20226;-73
2022/10/13 02:32:53;;;;;;;2.50;2.20;;;;;;;9.36;78.68;101851.16;6188023;28;20233;-73
2022/10/13 02:36:14;;;;;;;2.87;2.27;;;;;;;9.43;78.61;101856.97;6169344;28;20229;-73
2022/10/13 02:39:36;;;;;;;4.03;3.63;;;;;;;9.36;78.89;101850.28;6171343;28;20233;-74
2022/10/13 02:42:57;;;;;;;4.67;2.63;;;;;;;9.46;78.58;101848.69;6162666;28;20320;-73
2022/10/13 02:46:18;;;;;;;3.07;2.80;;;;;;;9.42;78.56;101847.19;6184631;28;21654;-73
2022/10/13 02:49:39;;;;;;;5.20;2.40;;;;;;;9.40;78.85;101841.91;6181918;28;20237;-73
2022/10/13 02:53:00;;;;;;;2.83;2.60;;;;;;;9.50;78.95;101844.81;6172724;28;20230;-73
2022/10/13 02:56:22;;;;;;;4.60;2.20;;;;;;;9.32;78.61;101841.56;6163072;28;20245;-73
2022/10/13 02:59:42;;;;;;;5.67;2.57;;;;;;;9.25;79.00;101840.25;6173289;28;20622;-73
2022/10/13 03:03:03;;;;;;;5.87;2.27;;;;;;;9.49;79.11;101843.09;6191221;28;20233;-73
2022/10/13 03:06:25;;;;;;;5.43;2.60;;;;;;;9.23;79.54;101842.19;6166977;28;20591;-73
2022/10/13 03:09:46;;;;;;;5.17;2.53;;;;;;;9.43;78.57;101836.28;6189169;28;20238;-74
2022/10/13 03:13:08;;;;;;;5.37;3.07;;;;;;;9.44;78.77;101835.34;6195430;28;20228;-73
2022/10/13 03:16:29;;;;;;;6.30;3.00;;;;;;;9.40;79.03;101828.44;6194172;28;20252;-72
2022/10/13 03:19:50;;;;;;;3.30;2.57;;;;;;;9.20;79.93;101830.78;6189274;28;20237;-72
2022/10/13 03:23:12;;;;;;;4.50;2.77;;;;;;;9.22;79.62;101823.47;6185737;28;20252;-74
2022/10/13 03:26:33;;;;;;;5.87;3.30;;;;;;;9.13;80.74;101821.38;6188421;28;20222;-74
2022/10/13 03:29:56;;;;;;;4.80;2.70;;;;;;;9.20;80.42;101825.41;6188849;28;20229;-74
2022/10/13 03:33:16;;;;;;;3.73;2.90;;;;;;;9.09;80.20;101822.56;6164137;28;20608;-72
2022/10/13 03:36:38;;;;;;;7.90;2.73;;;;;;;8.80;81.73;101824.53;6168766;28;20254;-73
2022/10/13 03:39:59;;;;;;;6.20;3.10;;;;;;;8.70;82.14;101824.25;6167351;28;20248;-73
2022/10/13 03:43:19;;;;;;;2.80;2.43;;;;;;;8.71;82.42;101826.00;6176214;28;20243;-73
2022/10/13 03:46:41;;;;;;;18.80;3.20;;;;;;;8.74;82.09;101825.78;6160420;28;20229;-73
2022/10/13 03:50:04;;;;;;;4.10;2.50;;;;;;;8.71;83.01;101826.00;6166019;28;20225;-73
2022/10/13 03:53:25;;;;;;;4.50;3.10;;;;;;;8.86;82.77;101813.34;6179681;28;20233;-73
2022/10/13 03:56:46;;;;;;;3.93;2.47;;;;;;;9.07;81.96;101817.31;6166200;28;20309;-73
2022/10/13 04:00:09;;;;;;;5.50;2.30;;;;;;;8.86;82.43;101816.88;6179828;28;20487;-73
2022/10/13 04:03:34;;;;;;;4.30;2.63;;;;;;;8.95;82.04;101817.25;6189579;28;20253;-73
2022/10/13 04:06:55;;;;;;;5.53;2.47;;;;;;;8.82;82.44;101823.44;6186897;28;20238;-73
2022/10/13 04:10:16;;;;;;;3.03;2.33;;;;;;;8.95;82.20;101818.09;6180183;28;20226;-73
2022/10/13 04:13:37;;;;;;;4.10;3.27;;;;;;;8.98;81.95;101817.03;6169072;28;20225;-74
2022/10/13 04:16:58;;;;;;;3.10;2.27;;;;;;;9.21;81.66;101817.22;6165347;28;20237;-73
2022/10/13 04:20:20;;;;;;;2.60;2.40;;;;;;;9.12;81.60;101817.81;6192375;28;20252;-74
2022/10/13 04:23:42;;;;;;;4.97;2.87;;;;;;;9.03;81.58;101810.41;6185543;28;20253;-74
2022/10/13 04:27:03;;;;;;;5.53;3.30;;;;;;;9.13;81.57;101814.19;6184429;28;20244;-74
2022/10/13 04:30:24;;;;;;;4.97;4.13;;;;;;;9.18;81.57;101803.97;6186381;28;21040;-74
2022/10/13 04:33:45;;;;;;;9.93;3.70;;;;;;;8.93;82.63;101811.13;6182568;28;20228;-73
2022/10/13 04:37:07;;;;;;;5.07;2.77;;;;;;;8.90;82.34;101809.50;6163258;28;20254;-74
2022/10/13 04:40:28;;;;;;;6.23;4.97;;;;;;;8.89;82.90;101804.22;6168890;28;20235;-73
2022/10/13 04:43:49;;;;;;;9.40;3.97;;;;;;;8.75;83.20;101805.13;6167491;28;20889;-74
2022/10/13 04:47:10;;;;;;;3.33;2.40;;;;;;;8.72;82.89;101802.63;6166399;28;20315;-73
2022/10/13 04:50:31;;;;;;;12.63;3.33;;;;;;;8.63;83.94;101797.88;6188819;28;20563;-73
2022/10/13 04:53:57;;;;;;;5.43;2.97;;;;;;;8.56;84.28;101801.94;6163902;28;20242;-74
2022/10/13 04:57:18;;;;;;;8.17;3.20;;;;;;;8.61;83.90;101803.38;6164120;28;20237;-73
2022/10/13 05:00:41;;;;;;;6.73;4.63;;;;;;;8.58;84.48;101797.31;6164208;28;20230;-72
2022/10/13 05:04:03;;;;;;;4.60;3.40;;;;;;;8.54;84.33;101793.09;6158342;28;20328;-73
2022/10/13 05:07:30;;;;;;;3.27;2.87;;;;;;;8.49;85.41;101797.94;6191837;28;20229;-73
2022/10/13 05:10:56;;;;;;;3.83;3.53;;;;;;;8.49;85.30;101787.19;6182432;28;20229;-73
2022/10/13 05:14:17;;;;;;;5.73;3.40;;;;;;;8.58;84.71;101789.25;6177476;28;20311;-73
2022/10/13 05:17:38;;;;;;;3.77;3.33;;;;;;;8.55;84.79;101787.63;6169964;28;20242;-74
2022/10/13 05:21:09;;;;;;;4.30;2.07;;;;;;;8.46;85.15;101785.56;6155467;28;20230;-74
2022/10/13 05:24:35;;;;;;;5.63;3.17;;;;;;;8.53;85.41;101777.97;6181810;28;20225;-74
2022/10/13 05:27:57;;;;;;;6.77;3.53;;;;;;;8.61;84.67;101771.13;6193751;28;20236;-74
2022/10/13 05:31:20;;;;;;;4.93;3.13;;;;;;;8.64;85.19;101767.34;6186344;28;20236;-73
2022/10/13 05:34:41;;;;;;;4.93;2.87;;;;;;;8.66;84.94;101770.78;6186301;28;20291;-74
2022/10/13 05:38:02;;;;;;;4.63;3.03;;;;;;;8.89;84.44;101761.22;6180823;28;20240;-74
2022/10/13 05:41:24;;;;;;;7.30;2.67;;;;;;;8.99;83.60;101767.69;6189066;28;20322;-74
2022/10/13 05:44:46;;;;;;;6.43;4.60;;;;;;;8.81;83.84;101759.88;6184499;28;20774;-73
2022/10/13 05:48:07;;;;;;;4.50;2.63;;;;;;;8.86;84.28;101760.41;6185736;28;20226;-72
2022/10/13 05:51:32;;;;;;;4.43;3.20;;;;;;;8.75;83.97;101762.13;6158189;28;20249;-73
2022/10/13 05:54:56;;;;;;;7.37;4.50;;;;;;;8.99;83.74;101752.38;6167361;28;20309;-69
2022/10/13 05:58:18;;;;;;;5.47;3.40;;;;;;;9.14;83.67;101745.09;6183607;28;20477;-69
2022/10/13 06:01:42;;;;;;;7.40;3.40;;;;;;;9.22;83.55;101734.69;6172655;28;20324;-69
2022/10/13 06:05:07;;;;;;;5.03;3.27;;;;;;;9.03;84.03;101732.41;6153829;28;20221;-69
2022/10/13 06:08:29;;;;;;;7.53;4.57;;;;;;;8.84;84.18;101724.72;6157222;28;20229;-73
2022/10/13 06:11:50;;;;;;;5.50;2.77;;;;;;;8.81;84.74;101734.81;6158211;28;20246;-73
2022/10/13 06:15:11;;;;;;;5.33;2.50;;;;;;;8.59;85.33;101726.50;6160929;28;20226;-73
2022/10/13 06:18:34;;;;;;;10.33;3.97;;;;;;;8.63;85.12;101725.31;6167733;28;20265;-74
2022/10/13 06:21:55;;;;;;;6.67;4.03;;;;;;;8.86;85.32;101727.31;6155153;28;20241;-69
2022/10/13 06:25:15;;;;;;;4.20;2.83;;;;;;;9.06;83.74;101734.00;6153437;28;20607;-73
2022/10/13 06:28:36;;;;;;;3.70;3.07;;;;;;;9.19;83.19;101729.50;6168542;28;20218;-72
2022/10/13 06:31:57;;;;;;;4.13;3.70;;;;;;;9.30;82.62;101732.31;6170144;28;20226;-70
2022/10/13 06:35:19;;;;;;;4.10;2.70;;;;;;;9.15;83.12;101720.81;6180630;28;20221;-73
2022/10/13 06:38:40;;;;;;;4.70;3.80;;;;;;;9.27;83.04;101727.13;6167888;28;20226;-71
2022/10/13 06:42:01;;;;;;;5.00;3.83;;;;;;;9.30;83.30;101732.31;6180879;28;20522;-71
2022/10/13 06:45:31;;;;;;;5.20;2.80;;;;;;;9.36;82.50;101738.16;6182858;28;20245;-70
2022/10/13 06:48:52;;;;;;;5.87;4.17;;;;;;;9.36;82.70;101740.84;6167012;28;20229;-74
2022/10/13 06:52:15;;;;;;;5.17;2.77;;;;;;;9.08;84.30;101743.69;6167635;28;20316;-73
2022/10/13 06:55:36;;;;;;;7.13;3.40;;;;;;;9.15;84.27;101754.91;6166803;28;20679;-74
2022/10/13 06:58:57;;;;;;;6.10;2.73;;;;;;;9.21;84.34;101741.03;6168478;28;20238;-72
2022/10/13 07:02:18;;;;;;;5.27;3.97;;;;;;;9.17;85.31;101740.38;6165778;28;20225;-73
2022/10/13 07:05:39;;;;;;;8.43;3.10;;;;;;;9.51;83.72;101733.50;6177372;28;20226;-74
2022/10/13 07:09:04;;;;;;;8.20;3.30;;;;;;;9.89;82.45;101725.38;6168838;28;20230;-73
2022/10/13 07:12:25;;;;;;;6.20;4.13;;;;;;;10.04;81.66;101725.13;6208500;28;20268;-72
2022/10/13 07:15:46;;;;;;;7.37;3.60;;;;;;;10.05;81.10;101715.22;6198500;28;20233;-73
2022/10/13 07:19:07;;;;;;;5.23;3.60;;;;;;;10.05;81.06;101729.56;6180794;28;20233;-72
2022/10/13 07:22:29;;;;;;;4.90;3.23;;;;;;;10.13;80.79;101727.19;6176698;28;20288;-73
2022/10/13 07:25:51;;;;;;;12.87;4.70;;;;;;;10.06;81.69;101730.38;6185101;28;20233;-74
2022/10/13 07:29:12;;;;;;;10.73;5.70;;;;;;;10.34;80.55;101722.03;6188831;28;20312;-74
2022/10/13 07:32:33;;;;;;;10.23;4.00;;;;;;;9.99;81.49;101721.88;6192598;28;20236;-72
2022/10/13 07:35:58;;;;;;;9.10;4.23;;;;;;;10.10;81.64;101718.41;6192334;28;20230;-73
2022/10/13 07:39:19;;;;;;;3.63;3.10;;;;;;;9.90;82.42;101714.50;6188550;28;20221;-74
2022/10/13 07:42:42;;;;;;;9.07;4.27;;;;;;;10.15;82.01;101701.00;6191280;28;20611;-72
2022/10/13 07:46:04;;;;;;;5.57;3.90;;;;;;;10.25;81.53;101709.25;6197094;28;20230;-74
2022/10/13 07:52:57;;;;;;;5.73;3.67;;;;;;;10.40;81.14;101711.66;6116750;23;20268;-73
2022/10/13 07:56:17;;;;;;;6.67;3.80;;;;;;;10.68;79.52;101707.72;6090827;28;20551;-73
2022/10/13 07:59:40;;;;;;;11.87;6.47;;;;;;;10.63;80.28;101715.31;6083329;28;20241;-73
2022/10/13 08:03:04;;;;;;;7.60;4.73;;;;;;;10.64;80.57;101710.81;6086521;28;20588;-72
2022/10/13 08:06:25;;;;;;;5.93;4.47;;;;;;;10.72;80.77;101714.59;6091982;28;20248;-73
2022/10/13 08:09:48;;;;;;;5.00;4.10;;;;;;;10.60;80.44;101720.94;6084012;28;20239;-73
2022/10/13 08:13:10;;;;;;;8.30;5.10;;;;;;;10.67;80.73;101722.22;6093041;28;20237;-73
2022/10/13 08:16:33;;;;;;;9.53;3.80;;;;;;;10.53;81.55;101717.00;6093516;28;20851;-73
2022/10/13 08:19:54;;;;;;;8.20;4.93;;;;;;;10.65;81.04;101707.97;6092261;28;20248;-72
2022/10/13 08:23:17;;;;;;;7.67;4.90;;;;;;;10.78;80.67;101705.22;6109456;28;20244;-73
2022/10/13 08:26:45;;;;;;;6.83;4.10;;;;;;;10.94;80.25;101687.72;6097586;28;20232;-72
2022/10/13 08:30:07;;;;;;;8.87;4.83;;;;;;;11.17;80.14;101677.84;6106570;28;20375;-73
2022/10/13 08:33:31;;;;;;;10.50;4.47;;;;;;;11.14;80.00;101689.72;6098974;28;20228;-73
2022/10/13 08:36:55;;;;;;;6.00;3.40;;;;;;;11.40;78.89;101693.09;6100952;28;20240;-73
2022/10/13 08:40:20;;;;;;;4.93;4.37;;;;;;;11.25;79.37;101689.75;6102841;28;20240;-73
2022/10/13 08:43:44;;;;;;;9.50;3.77;;;;;;;11.30;79.70;101691.22;6100700;28;20235;-73
2022/10/13 08:47:12;;;;;;;10.27;4.63;;;;;;;11.45;79.63;101692.72;6103203;28;20334;-74
2022/10/13 08:50:38;;;;;;;10.47;5.07;;;;;;;11.56;78.49;101688.19;6098720;28;20231;-71
2022/10/13 08:53:59;;;;;;;5.77;4.63;;;;;;;11.44;79.59;101685.59;6099926;28;20694;-72
2022/10/13 08:57:20;;;;;;;10.20;4.70;;;;;;;11.55;79.22;101678.38;6087060;28;21098;-73
2022/10/13 09:00:42;;;;;;;10.53;5.53;;;;;;;11.76;78.76;101700.13;6090064;28;20622;-73
2022/10/13 09:04:24;;;;;;;8.67;4.67;;;;;;;11.73;79.69;101714.72;6094315;28;20620;-72
2022/10/13 09:07:47;;;;;;;9.10;5.10;;;;;;;11.68;79.53;101691.78;6098139;28;20276;-74
2022/10/13 09:11:10;;;;;;;9.07;5.90;;;;;;;11.95;78.51;101693.09;6096462;28;20235;-73
2022/10/13 09:14:33;;;;;;;15.60;5.97;;;;;;;12.13;78.38;101689.88;6099538;28;20235;-73
2022/10/13 09:18:10;;;;;;;5.47;4.47;;;;;;;12.41;77.40;101684.75;6110365;28;20537;-73
2022/10/13 09:21:31;;;;;;;7.13;5.17;;;;;;;12.68;76.37;101677.00;6077523;29;20679;-72
2022/10/13 09:25:16;;;;;;;8.33;5.10;;;;;;;12.72;75.81;101659.53;6088147;28;20232;-72
2022/10/13 09:28:38;;;;;;;8.97;5.70;;;;;;;12.73;76.24;101677.50;6074512;29;20237;-72
2022/10/13 09:32:15;;;;;;;9.23;3.97;;;;;;;13.37;73.67;101669.28;6090551;28;20248;-73
2022/10/13 09:35:37;;;;;;;9.43;7.10;;;;;;;13.76;72.42;101671.16;6092952;28;20223;-72
2022/10/13 09:39:07;;;;;;;9.63;5.27;;;;;;;14.57;70.19;101678.19;6098739;28;20236;-72
2022/10/13 09:42:31;;;;;;;6.73;4.33;;;;;;;15.74;64.92;101679.56;6099234;28;20236;-72
2022/10/13 09:45:56;;;;;;;9.33;4.83;;;;;;;15.45;66.32;101673.38;6097932;28;20236;-72
2022/10/13 09:49:37;;;;;;;7.07;5.07;;;;;;;18.50;56.94;101664.22;6099450;28;20700;-68
2022/10/13 09:53:21;;;;;;;5.72;4.97;;;;;;;21.38;50.21;101665.13;6086121;28;20697;-69
2022/10/13 09:56:46;;;;;;;7.85;5.10;;;;;;;18.08;56.18;101663.38;6103294;28;20236;-68
2022/10/13 10:00:16;;;;;;;9.52;5.35;;;;;;;17.34;59.59;101666.75;6086579;28;20554;-69
2022/10/13 10:03:38;;;;;;;7.78;5.38;;;;;;;15.74;64.30;101658.69;6096815;28;20236;-68
2022/10/13 10:06:59;;;;;;;13.23;6.00;;;;;;;14.99;67.85;101657.88;6097660;28;20236;-68
2022/10/13 10:10:32;;;;;;;9.47;5.73;;;;;;;15.11;67.89;101646.72;6094165;28;20232;-68
2022/10/13 10:13:56;;;;;;;5.60;4.97;;;;;;;14.76;69.14;101653.75;6096422;28;20236;-67
2022/10/13 10:17:23;;;;;;;7.30;5.60;;;;;;;14.52;70.48;101651.47;6105440;28;20342;-67
2022/10/13 10:20:56;;;;;;;8.37;4.47;;;;;;;14.41;71.32;101649.75;6068155;28;20232;-70
2022/10/13 10:24:26;;;;;;;10.57;6.83;;;;;;;13.90;73.59;101648.22;6101387;28;20239;-70
2022/10/13 10:28:11;;;;;;;6.20;5.53;;;;;;;14.10;72.93;101642.69;6096887;28;20620;-70
2022/10/13 10:31:45;;;;;;;10.70;4.93;;;;;;;14.23;73.01;101643.28;6097185;28;20236;-70
2022/10/13 10:35:17;;;;;;;7.27;5.50;;;;;;;13.99;73.84;101642.84;6108176;28;20235;-70
2022/10/13 10:38:45;;;;;;;7.93;5.30;;;;;;;14.22;73.04;101629.88;6101683;28;20267;-70
2022/10/13 10:42:18;;;;;;;9.17;5.43;;;;;;;14.45;72.52;101630.50;6109800;28;20239;-71
2022/10/13 10:45:39;;;;;;;9.10;5.73;;;;;;;14.03;74.54;101622.56;6096143;28;20251;-70
2022/10/13 10:49:04;;;;;;;7.13;5.03;;;;;;;14.32;73.94;101628.91;6098158;28;20235;-70
2022/10/13 10:52:31;;;;;;;10.53;5.37;;;;;;;14.20;74.47;101615.59;6095071;28;20239;-70
2022/10/13 10:55:55;;;;;;;13.03;5.90;;;;;;;14.53;73.57;101614.34;6091435;28;20255;-70
2022/10/13 10:59:26;;;;;;;12.90;6.23;;;;;;;15.07;71.60;101603.69;6104717;28;20223;-69
2022/10/13 11:02:57;;;;;;;5.80;4.17;;;;;;;15.36;69.83;101601.72;6103586;28;20287;-70
2022/10/13 11:06:25;;;;;;;9.77;5.23;;;;;;;15.75;69.14;101599.72;6085062;28;20654;-70
2022/10/13 11:10:17;;;;;;;11.50;5.37;;;;;;;16.34;67.03;101583.69;6105573;28;20768;-70
2022/10/13 11:13:51;;;;;;;5.93;4.63;;;;;;;17.66;62.46;101573.38;6102865;28;20319;-69
2022/10/13 11:17:18;;;;;;;6.03;4.50;;;;;;;18.36;59.49;101567.41;6115313;28;20235;-70
2022/10/13 11:20:57;;;;;;;11.80;5.22;;;;;;;18.16;59.25;101567.88;6110716;28;20267;-71
2022/10/13 11:24:44;;;;;;;6.55;4.20;;;;;;;19.80;54.67;101557.22;6092673;28;20266;-71
2022/10/13 11:28:38;;;;;;;10.43;4.90;;;;;;;18.70;56.50;101550.88;6105855;28;20252;-71
2022/10/13 11:32:00;;;;;;;7.88;5.65;;;;;;;17.52;60.88;101554.94;6098557;28;20244;-70
2022/10/13 11:35:25;;;;;;;8.18;4.97;;;;;;;19.12;56.48;101546.00;6096950;28;20625;-70
2022/10/13 11:38:55;;;;;;;9.60;5.18;;;;;;;20.07;54.58;101552.28;6079355;28;20245;-71
2022/10/13 11:42:48;;;;;;;6.68;4.32;;;;;;;21.24;51.50;101545.25;6102970;28;20241;-70
2022/10/13 11:46:21;;;;;;;4.78;3.55;;;;;;;24.30;44.60;101546.19;6103763;28;20674;-71
2022/10/13 11:50:02;;;;;;;8.15;4.00;;;;;;;23.81;44.04;101551.13;6106499;28;20228;-72
2022/10/13 11:53:26;;;;;;;6.80;4.82;;;;;;;24.24;42.81;101537.94;6093281;28;20224;-71
2022/10/13 11:56:50;;;;;;;6.78;3.72;;;;;;;23.24;44.38;101545.09;6104810;28;20310;-71
2022/10/13 12:00:14;;;;;;;6.78;4.65;;;;;;;17.97;59.92;101540.91;6101310;28;20234;-71
2022/10/13 12:03:38;;;;;;;7.15;4.60;;;;;;;19.51;55.34;101537.00;6113146;28;20903;-71
2022/10/13 12:07:09;;;;;;;9.35;4.15;;;;;;;18.61;58.28;101545.59;6106698;28;20247;-71
2022/10/13 12:10:32;;;;;;;7.13;4.75;;;;;;;17.18;63.15;101544.00;6107703;28;20247;-71
2022/10/13 12:13:54;;;;;;;6.85;5.05;;;;;;;18.75;59.18;101528.50;6106246;28;20555;-71
2022/10/13 12:17:21;;;;;;;7.13;4.53;;;;;;;20.97;53.40;101532.16;6115511;28;20227;-70
2022/10/13 12:20:42;;;;;;;6.20;3.92;;;;;;;17.53;62.17;101535.66;6103278;28;20873;-71
2022/10/13 12:24:10;;;;;;;8.98;3.90;;;;;;;16.64;66.12;101542.47;6112302;28;20330;-70
2022/10/13 12:27:39;;;;;;;6.05;4.75;;;;;;;16.38;67.47;101536.09;6109039;28;20247;-71
2022/10/13 12:31:00;;;;;;;8.02;3.67;;;;;;;15.91;69.01;101531.94;6098114;28;20236;-72
2022/10/13 12:34:25;;;;;;;10.23;5.03;;;;;;;16.43;67.91;101527.47;6104081;28;20244;-71
2022/10/13 12:37:46;;;;;;;6.57;4.53;;;;;;;16.06;69.04;101535.81;6101374;28;20240;-70
2022/10/13 12:41:10;;;;;;;13.27;5.50;;;;;;;16.30;68.38;101516.13;6092416;28;20673;-71
2022/10/13 12:44:32;;;;;;;8.30;4.90;;;;;;;16.43;67.71;101524.75;6104727;28;20323;-70
2022/10/13 12:47:54;;;;;;;9.27;5.33;;;;;;;16.62;67.07;101519.13;6102941;28;20220;-72
2022/10/13 12:51:19;;;;;;;10.10;5.33;;;;;;;16.67;66.91;101511.31;6099694;28;20244;-70
2022/10/13 12:54:47;;;;;;;11.20;4.27;;;;;;;16.52;67.40;101512.94;6107014;28;21457;-70
2022/10/13 12:58:19;;;;;;;6.13;3.75;;;;;;;16.32;68.47;101509.50;6104885;28;20262;-71
2022/10/13 13:01:40;;;;;;;9.40;4.15;;;;;;;16.21;68.37;101506.19;6108548;28;20247;-70
2022/10/13 13:05:01;;;;;;;7.70;4.73;;;;;;;15.93;69.38;101500.00;6099811;28;20243;-70
2022/10/13 13:08:24;;;;;;;12.00;4.50;;;;;;;15.98;69.44;101500.34;6104699;28;20228;-71
2022/10/13 13:11:45;;;;;;;5.33;3.40;;;;;;;16.02;69.85;101501.75;6108549;28;20236;-70
2022/10/13 13:15:36;;;;;;;10.20;3.40;;;;;;;16.27;68.97;101503.69;6107840;28;20244;-69
2022/10/13 13:18:57;;;;;;;11.67;5.40;;;;;;;16.18;69.07;101509.22;6090290;28;20243;-71
2022/10/13 13:22:18;;;;;;;6.20;4.10;;;;;;;16.06;69.83;101507.75;6101785;28;20233;-72
2022/10/13 13:25:39;;;;;;;9.83;3.90;;;;;;;15.99;70.31;101507.53;6114671;28;20627;-71
2022/10/13 13:29:00;;;;;;;8.93;3.60;;;;;;;15.95;70.00;101507.00;6094314;28;20634;-71
2022/10/13 13:32:24;;;;;;;4.27;3.87;;;;;;;15.84;70.28;101506.34;6102647;28;20228;-70
2022/10/13 13:35:47;;;;;;;5.60;4.27;;;;;;;15.98;70.65;101503.06;6089211;28;20398;-70
2022/10/13 13:39:14;;;;;;;6.27;4.80;;;;;;;16.03;70.13;101506.19;6084792;28;20642;-70
2022/10/13 13:42:36;;;;;;;9.93;4.87;;;;;;;15.94;70.33;101499.81;6095713;28;20247;-70
2022/10/13 13:45:57;;;;;;;6.83;4.20;;;;;;;15.96;70.72;101505.09;6098929;28;20244;-70
2022/10/13 13:49:20;;;;;;;6.40;4.53;;;;;;;15.93;70.84;101500.00;6098422;28;20232;-66
2022/10/13 13:52:41;;;;;;;6.17;4.03;;;;;;;15.96;70.82;101505.97;6100201;28;20236;-64
2022/10/13 13:56:03;;;;;;;7.10;4.33;;;;;;;16.02;71.16;101499.03;6095487;28;20263;-65
2022/10/13 13:59:24;;;;;;;6.23;4.47;;;;;;;15.94;70.82;101509.84;6095494;28;20354;-67
2022/10/13 14:02:47;;;;;;;9.70;3.63;;;;;;;15.99;71.37;101502.09;6101931;28;20243;-65
2022/10/13 14:06:15;;;;;;;10.17;4.40;;;;;;;16.05;70.93;101504.19;6088116;28;20232;-73
2022/10/13 14:09:36;;;;;;;12.23;4.40;;;;;;;16.21;70.14;101500.75;6100269;28;20231;-65
2022/10/13 14:12:57;;;;;;;4.13;3.73;;;;;;;16.12;70.63;101498.97;6077065;28;20314;-65
2022/10/13 14:16:18;;;;;;;11.40;6.33;;;;;;;15.94;71.19;101504.41;6100389;28;20236;-74
2022/10/13 14:19:39;;;;;;;7.43;4.60;;;;;;;15.86;71.42;101499.75;6112301;28;21486;-75
2022/10/13 14:23:01;;;;;;;6.23;4.27;;;;;;;15.84;71.06;101495.47;6090724;28;20343;-75
2022/10/13 14:26:22;;;;;;;6.30;4.30;;;;;;;15.74;72.11;101497.41;6107174;28;20231;-74
2022/10/13 14:29:43;;;;;;;5.83;3.80;;;;;;;15.75;71.77;101493.69;6108312;28;20231;-76
2022/10/13 14:33:05;;;;;;;7.03;4.07;;;;;;;15.89;71.06;101485.00;6116725;28;20232;-76
2022/10/13 14:36:26;;;;;;;5.13;3.80;;;;;;;15.92;71.15;101482.81;6113854;28;20237;-75
2022/10/13 14:39:49;;;;;;;12.17;3.80;;;;;;;15.99;71.42;101486.63;6105685;28;20777;-76
2022/10/13 14:43:10;;;;;;;5.87;4.13;;;;;;;15.95;71.33;101479.78;6113389;28;20259;-75
2022/10/13 14:46:31;;;;;;;8.13;4.50;;;;;;;15.85;71.70;101483.59;6115075;28;20322;-75
2022/10/13 14:49:52;;;;;;;5.97;4.40;;;;;;;15.84;71.79;101488.19;6110801;28;20249;-75
2022/10/13 14:53:14;;;;;;;4.23;3.83;;;;;;;15.88;71.65;101480.56;6121028;28;20232;-76
2022/10/13 14:56:36;;;;;;;4.27;3.67;;;;;;;15.93;71.58;101481.81;6114200;28;20689;-76
2022/10/13 14:59:57;;;;;;;4.93;3.20;;;;;;;15.98;71.25;101481.31;6118047;28;20232;-75
2022/10/13 15:03:18;;;;;;;4.73;3.47;;;;;;;16.02;71.14;101472.69;6113312;28;20235;-76
2022/10/13 15:06:39;;;;;;;10.77;4.53;;;;;;;15.94;71.68;101477.19;6120509;28;20548;-76
2022/10/13 15:10:00;;;;;;;6.07;3.60;;;;;;;15.88;72.24;101467.81;6117835;28;21032;-75
2022/10/13 15:13:22;;;;;;;6.27;3.17;;;;;;;15.78;72.37;101468.91;6119343;28;20232;-76
2022/10/13 15:16:43;;;;;;;6.07;3.83;;;;;;;15.66;73.08;101478.31;6116291;28;20232;-76
2022/10/13 15:20:05;;;;;;;4.53;3.47;;;;;;;15.71;72.89;101462.38;6114478;28;21762;-76
2022/10/13 15:23:26;;;;;;;6.33;2.87;;;;;;;15.73;72.57;101466.66;6117404;28;20235;-76
2022/10/13 15:26:47;;;;;;;4.77;3.43;;;;;;;15.68;72.82;101468.13;6115368;28;20232;-76
2022/10/13 15:30:11;;;;;;;8.40;4.17;;;;;;;15.70;73.33;101476.97;6113801;28;20346;-76
2022/10/13 15:33:32;;;;;;;7.50;3.47;;;;;;;15.67;73.63;101475.41;6099361;28;20235;-76
2022/10/13 15:36:53;;;;;;;7.30;3.37;;;;;;;15.63;74.01;101470.44;6109188;28;20255;-78
2022/10/13 15:40:14;;;;;;;7.03;3.07;;;;;;;15.61;74.48;101472.47;6113304;28;20661;-76
2022/10/13 15:43:35;;;;;;;5.37;3.33;;;;;;;15.64;74.62;101470.31;6121248;28;20522;-76
2022/10/13 15:46:58;;;;;;;3.97;3.27;;;;;;;15.63;74.30;101473.16;6109838;28;20328;-75
2022/10/13 15:50:19;;;;;;;4.77;2.90;;;;;;;15.62;74.41;101479.63;6107385;28;20231;-77
2022/10/13 15:53:40;;;;;;;3.90;3.17;;;;;;;15.51;75.05;101474.41;6089290;28;20611;-76
2022/10/13 15:57:01;;;;;;;6.50;4.23;;;;;;;15.51;75.32;101474.41;6089273;28;20232;-77